Time;durP1;ratioP1;P1;durP2;ratioP2;P2;SDS_P1;SDS_P2;PMS_P1;PMS_P2;Temp;Humidity;BMP_temperature;BMP_pressure;BME280_temperature;BME280_humidity;BME280_pressure;Samples;Min_cycle;Max_cycle;Signal;HPM_P1;HPM_P2
2023/01/07 00:01:01;;;;;;;39.90;22.10;;;8.30;99.90;;;;;;5158601;27;20390;-59
2023/01/07 00:03:27;;;;;;;42.13;23.02;;;8.60;99.90;;;;;;5140239;27;20046;-59
2023/01/07 00:06:09;;;;;;;41.78;23.85;;;8.30;99.90;;;;;;5139387;27;20046;-59
2023/01/07 00:08:38;;;;;;;39.60;20.55;;;8.50;99.90;;;;;;5158915;27;20468;-59
2023/01/07 00:11:07;;;;;;;38.85;21.58;;;8.30;99.90;;;;;;5141913;27;20142;-58
2023/01/07 00:13:33;;;;;;;47.03;24.77;;;8.50;99.90;;;;;;5162474;27;20394;-58
2023/01/07 00:16:10;;;;;;;46.17;24.00;;;8.90;99.90;;;;;;5162285;27;20476;-58
2023/01/07 00:18:36;;;;;;;44.67;23.35;;;9.00;99.90;;;;;;5144951;27;20042;-58
2023/01/07 00:21:06;;;;;;;42.95;22.17;;;9.10;99.90;;;;;;5143213;27;20106;-58
2023/01/07 00:23:33;;;;;;;46.40;23.08;;;9.00;99.90;;;;;;5161723;27;20034;-58
2023/01/07 00:26:10;;;;;;;46.80;21.98;;;9.10;99.90;;;;;;5162489;27;20046;-58
2023/01/07 00:28:38;;;;;;;50.25;22.48;;;9.00;99.90;;;;;;5142834;27;20119;-58
2023/01/07 00:31:06;;;;;;;52.17;23.73;;;9.20;99.90;;;;;;5161615;27;20087;-58
2023/01/07 00:33:34;;;;;;;47.35;22.70;;;9.30;99.90;;;;;;5162176;27;20039;-59
2023/01/07 00:36:08;;;;;;;49.00;22.70;;;9.30;99.90;;;;;;5160944;27;20047;-58
2023/01/07 00:38:35;;;;;;;53.72;23.48;;;8.90;99.90;;;;;;5162191;27;20042;-58
2023/01/07 00:41:00;;;;;;;51.47;23.25;;;9.30;99.90;;;;;;5154920;27;20031;-58
2023/01/07 00:43:26;;;;;;;53.80;23.58;;;9.30;99.90;;;;;;5122462;27;20039;-58
2023/01/07 00:45:52;;;;;;;49.85;23.70;;;8.80;99.90;;;;;;5140559;27;20041;-58
2023/01/07 00:48:18;;;;;;;51.67;24.48;;;9.50;99.90;;;;;;5140575;27;20122;-58
2023/01/07 00:50:47;;;;;;;53.20;23.25;;;9.20;99.90;;;;;;5141277;27;20050;-58
2023/01/07 00:53:13;;;;;;;52.63;22.95;;;9.50;99.90;;;;;;5140054;27;20056;-58
2023/01/07 00:55:38;;;;;;;54.10;23.08;;;8.80;99.90;;;;;;5140873;27;20066;-58
2023/01/07 00:58:05;;;;;;;57.65;22.02;;;9.00;99.90;;;;;;5140115;27;20039;-58
2023/01/07 01:00:30;;;;;;;44.20;21.17;;;8.80;99.90;;;;;;5140630;27;20031;-58
2023/01/07 01:02:58;;;;;;;52.38;22.90;;;9.60;99.90;;;;;;5140356;27;20272;-58
2023/01/07 01:05:24;;;;;;;52.38;20.35;;;9.80;99.90;;;;;;5140179;27;20047;-58
2023/01/07 01:07:50;;;;;;;47.63;19.70;;;9.70;99.90;;;;;;5140739;27;20479;-58
2023/01/07 01:10:18;;;;;;;45.70;20.85;;;9.00;99.90;;;;;;5140318;27;20031;-59
2023/01/07 01:12:46;;;;;;;45.95;20.08;;;9.30;99.90;;;;;;5140333;27;20034;-58
2023/01/07 01:15:14;;;;;;;50.42;19.13;;;9.80;99.90;;;;;;5139662;27;20103;-59
2023/01/07 01:17:40;;;;;;;46.97;19.88;;;9.60;99.90;;;;;;5140356;27;20039;-58
2023/01/07 01:20:08;;;;;;;42.03;18.10;;;9.90;99.90;;;;;;5140135;27;20043;-58
2023/01/07 01:22:34;;;;;;;55.88;19.90;;;9.00;99.90;;;;;;5139784;27;20039;-58
2023/01/07 01:25:00;;;;;;;45.72;19.35;;;10.00;99.90;;;;;;5140494;27;20089;-58
2023/01/07 01:27:25;;;;;;;43.78;18.40;;;10.10;99.90;;;;;;5138999;27;20566;-58
2023/01/07 01:29:51;;;;;;;41.90;17.80;;;10.00;99.90;;;;;;5121712;27;20547;-58
2023/01/07 01:32:17;;;;;;;42.13;17.90;;;9.20;99.90;;;;;;5139235;27;20078;-59
2023/01/07 01:34:42;;;;;;;46.10;19.50;;;9.10;99.90;;;;;;5139049;27;20039;-58
2023/01/07 01:37:08;;;;;;;43.30;18.45;;;9.70;99.90;;;;;;5139533;27;20071;-58
2023/01/07 01:39:33;;;;;;;46.10;18.63;;;10.00;99.90;;;;;;5139279;27;20042;-58
2023/01/07 01:41:59;;;;;;;41.05;17.33;;;10.20;99.90;;;;;;5120952;27;20051;-58
2023/01/07 01:44:36;;;;;;;40.05;19.13;;;10.10;99.90;;;;;;5138945;27;20067;-58
2023/01/07 01:47:35;;;;;;;45.60;20.05;;;9.20;99.90;;;;;;5140086;27;20047;-58
2023/01/07 01:50:15;;;;;;;46.13;20.42;;;10.10;99.90;;;;;;5126057;27;20078;-58
2023/01/07 01:52:51;;;;;;;40.25;20.02;;;9.70;99.90;;;;;;5120380;27;20059;-59
2023/01/07 01:55:21;;;;;;;43.35;21.25;;;9.40;99.90;;;;;;5152239;27;20084;-59
2023/01/07 01:57:49;;;;;;;47.80;22.88;;;10.40;99.90;;;;;;5159768;27;20113;-58
2023/01/07 02:00:15;;;;;;;45.65;20.88;;;9.60;99.90;;;;;;5160191;27;20042;-58
2023/01/07 02:02:55;;;;;;;43.58;20.60;;;10.50;99.90;;;;;;5159436;27;20047;-58
2023/01/07 02:05:25;;;;;;;39.63;20.38;;;10.30;99.90;;;;;;5159582;27;20057;-60
2023/01/07 02:07:50;;;;;;;37.95;20.58;;;9.60;99.90;;;;;;5159999;27;20944;-58
2023/01/07 02:10:21;;;;;;;42.72;21.67;;;9.30;99.90;;;;;;5159108;27;20053;-58
2023/01/07 02:13:09;;;;;;;40.35;21.33;;;9.20;99.90;;;;;;5159613;27;20057;-59
2023/01/07 02:16:17;;;;;;;39.33;21.92;;;9.40;99.90;;;;;;5159545;27;20449;-58
2023/01/07 02:19:25;;;;;;;40.55;21.50;;;10.50;99.90;;;;;;5145024;27;20043;-58
2023/01/07 02:22:52;;;;;;;41.60;22.55;;;10.40;99.90;;;;;;5111035;27;20058;-59
2023/01/07 02:25:40;;;;;;;43.00;23.20;;;10.50;99.90;;;;;;5055242;28;20084;-59
2023/01/07 02:28:21;;;;;;;44.58;24.27;;;10.60;99.90;;;;;;5054062;28;20561;-59
2023/01/07 02:31:10;;;;;;;43.47;23.98;;;10.50;99.90;;;;;;5130118;27;20050;-59
2023/01/07 02:33:36;;;;;;;44.47;22.98;;;9.50;99.90;;;;;;5159834;27;20129;-59
2023/01/07 02:36:16;;;;;;;42.25;24.05;;;10.00;99.90;;;;;;5158982;27;20043;-59
2023/01/07 02:39:09;;;;;;;42.95;23.80;;;10.50;99.90;;;;;;5159328;27;20038;-59
2023/01/07 02:41:34;;;;;;;43.13;24.70;;;10.00;99.90;;;;;;5159493;27;20073;-58
2023/01/07 02:44:11;;;;;;;44.05;24.83;;;10.10;99.90;;;;;;5158691;27;20047;-59
2023/01/07 02:46:45;;;;;;;44.95;25.17;;;9.50;99.90;;;;;;5159602;27;20039;-59
2023/01/07 02:49:14;;;;;;;40.78;23.73;;;10.50;99.90;;;;;;5159155;27;20046;-59
2023/01/07 02:51:41;;;;;;;40.20;23.77;;;10.50;99.90;;;;;;5159963;27;20046;-59
2023/01/07 02:54:14;;;;;;;41.55;24.55;;;10.60;99.90;;;;;;5156738;27;20099;-59
2023/01/07 02:56:58;;;;;;;41.92;25.38;;;10.60;99.90;;;;;;5138462;28;20035;-59
2023/01/07 02:59:47;;;;;;;39.40;23.70;;;9.40;99.90;;;;;;5138667;28;20099;-59
2023/01/07 03:02:26;;;;;;;40.45;25.20;;;10.10;99.90;;;;;;5138173;28;20051;-59
2023/01/07 03:05:07;;;;;;;41.55;24.60;;;9.50;99.90;;;;;;5138481;28;20089;-59
2023/01/07 03:07:48;;;;;;;39.10;24.63;;;10.60;99.90;;;;;;5138465;28;20077;-58
2023/01/07 03:10:37;;;;;;;39.10;23.80;;;9.40;99.90;;;;;;5119074;28;20035;-59
2023/01/07 03:13:11;;;;;;;37.90;23.20;;;10.10;99.90;;;;;;5138362;28;20100;-58
2023/01/07 03:15:50;;;;;;;38.50;23.70;;;9.30;99.90;;;;;;5137838;28;20081;-59
2023/01/07 03:18:23;;;;;;;36.25;24.48;;;10.50;99.90;;;;;;5119421;28;20122;-59
2023/01/07 03:20:52;;;;;;;41.00;24.48;;;10.50;99.90;;;;;;5139001;28;20042;-59
2023/01/07 03:23:22;;;;;;;37.85;24.52;;;10.10;99.90;;;;;;5137645;28;20086;-59
2023/01/07 03:25:50;;;;;;;41.17;24.70;;;9.60;99.90;;;;;;5138486;28;20057;-59
2023/01/07 03:28:31;;;;;;;37.92;26.50;;;9.60;99.90;;;;;;5137476;28;20046;-58
2023/01/07 03:30:58;;;;;;;40.60;26.02;;;9.80;99.90;;;;;;5137902;28;20039;-59
2023/01/07 03:33:48;;;;;;;41.00;25.92;;;9.60;99.90;;;;;;5138248;28;20627;-59
2023/01/07 03:36:17;;;;;;;41.50;26.33;;;10.70;99.90;;;;;;5137753;28;20050;-59
2023/01/07 03:38:44;;;;;;;40.78;25.92;;;10.40;99.90;;;;;;5138291;28;20424;-57
2023/01/07 03:42:38;;;;;;;41.33;27.30;;;9.60;99.90;;;;;;5137659;28;20406;-58
2023/01/07 03:43:55;;;;;;;40.08;26.85;;;9.60;99.90;;;;;;5137231;28;20054;-58
2023/01/07 03:46:21;;;;;;;38.30;27.55;;;9.50;99.90;;;;;;5138283;28;20043;-58
2023/01/07 03:48:47;;;;;;;38.30;27.00;;;10.40;99.90;;;;;;5137389;28;20043;-58
2023/01/07 03:51:12;;;;;;;39.08;27.52;;;10.50;99.90;;;;;;5119754;28;20050;-58
2023/01/07 03:53:38;;;;;;;38.92;27.67;;;9.60;99.90;;;;;;5137675;28;20047;-58
2023/01/07 03:56:04;;;;;;;36.67;27.90;;;10.00;99.90;;;;;;5157772;27;20102;-58
2023/01/07 03:58:29;;;;;;;36.05;27.02;;;10.50;99.90;;;;;;5162467;27;20088;-58
2023/01/07 04:00:55;;;;;;;39.80;27.58;;;10.00;99.90;;;;;;5162626;27;20038;-57
2023/01/07 04:03:21;;;;;;;35.75;25.65;;;10.50;99.90;;;;;;5163102;27;20075;-57
2023/01/07 04:05:46;;;;;;;34.55;25.95;;;10.00;99.90;;;;;;5162028;27;20073;-58
2023/01/07 04:08:12;;;;;;;36.10;25.35;;;9.70;99.90;;;;;;5143876;27;20075;-57
2023/01/07 04:10:38;;;;;;;35.40;25.65;;;9.90;99.90;;;;;;5142783;27;20055;-58
2023/01/07 04:13:03;;;;;;;35.38;25.90;;;9.70;99.90;;;;;;5162209;27;20042;-58
2023/01/07 04:15:29;;;;;;;34.67;24.90;;;10.00;99.90;;;;;;5161730;27;20038;-58
2023/01/07 04:17:54;;;;;;;34.05;24.05;;;10.40;99.90;;;;;;5162125;27;20098;-58
2023/01/07 04:20:20;;;;;;;35.47;24.40;;;10.30;99.90;;;;;;5162655;27;20046;-58
2023/01/07 04:22:46;;;;;;;32.22;24.13;;;10.30;99.90;;;;;;5161539;27;20046;-58
2023/01/07 04:25:11;;;;;;;34.15;24.85;;;10.10;99.90;;;;;;5162288;27;20047;-58
2023/01/07 04:27:37;;;;;;;29.67;23.83;;;10.40;99.90;;;;;;5161398;27;20050;-59
2023/01/07 04:30:03;;;;;;;30.10;24.77;;;10.00;99.90;;;;;;5162039;27;20039;-58
2023/01/07 04:32:29;;;;;;;31.42;24.13;;;10.00;99.90;;;;;;5161841;27;20031;-58
2023/01/07 04:34:55;;;;;;;32.97;24.45;;;10.10;99.90;;;;;;5161968;27;20054;-58
2023/01/07 04:37:20;;;;;;;36.10;25.08;;;10.40;99.90;;;;;;5161507;27;20067;-58
2023/01/07 04:39:46;;;;;;;31.58;24.92;;;10.20;99.90;;;;;;5142942;27;20134;-58
2023/01/07 04:42:12;;;;;;;34.25;25.20;;;9.60;99.90;;;;;;5161902;27;20043;-57
2023/01/07 04:44:37;;;;;;;35.45;25.15;;;9.70;99.90;;;;;;5161370;27;20409;-58
2023/01/07 04:47:03;;;;;;;32.78;24.77;;;10.20;99.90;;;;;;5143754;27;20045;-57
2023/01/07 04:49:29;;;;;;;33.08;25.13;;;10.10;99.90;;;;;;5161389;27;20082;-58
2023/01/07 04:51:54;;;;;;;31.83;24.67;;;9.80;99.90;;;;;;5143440;27;20035;-58
2023/01/07 04:54:20;;;;;;;35.22;24.73;;;9.70;99.90;;;;;;5157363;27;20039;-58
2023/01/07 04:56:45;;;;;;;35.40;23.70;;;10.00;99.90;;;;;;5140365;27;20073;-56
2023/01/07 04:59:11;;;;;;;32.00;23.20;;;10.00;99.90;;;;;;5122401;27;20095;-58
2023/01/07 05:01:37;;;;;;;31.95;23.92;;;10.10;99.90;;;;;;5139984;27;20076;-58
2023/01/07 05:04:02;;;;;;;30.48;22.48;;;10.00;99.90;;;;;;5122354;27;20035;-59
2023/01/07 05:06:28;;;;;;;30.80;23.85;;;10.00;99.90;;;;;;5139872;27;20043;-58
2023/01/07 05:08:54;;;;;;;31.42;22.75;;;10.20;99.90;;;;;;5139711;27;20457;-58
2023/01/07 05:11:20;;;;;;;31.38;22.90;;;10.10;99.90;;;;;;5140310;27;20494;-59
2023/01/07 05:13:48;;;;;;;31.10;22.27;;;9.60;99.90;;;;;;5140148;27;20054;-58
2023/01/07 05:16:14;;;;;;;32.28;22.85;;;9.60;99.90;;;;;;5122242;27;20039;-58
2023/01/07 05:18:39;;;;;;;30.00;23.25;;;10.00;99.90;;;;;;5139788;27;20054;-58
2023/01/07 05:21:05;;;;;;;29.42;23.25;;;10.00;99.90;;;;;;5140130;27;20457;-58
2023/01/07 05:23:31;;;;;;;31.17;22.92;;;9.60;99.90;;;;;;5139831;27;20046;-58
2023/01/07 05:25:57;;;;;;;30.17;23.17;;;9.80;99.90;;;;;;5121773;27;20426;-58
2023/01/07 05:28:22;;;;;;;32.50;23.67;;;9.90;99.90;;;;;;5139176;27;20069;-58
2023/01/07 05:30:48;;;;;;;32.92;24.30;;;9.90;99.90;;;;;;5139918;27;20046;-57
2023/01/07 05:33:14;;;;;;;31.00;22.27;;;10.10;99.90;;;;;;5140115;27;20047;-58
2023/01/07 05:35:39;;;;;;;29.75;23.05;;;10.00;99.90;;;;;;5139102;27;20039;-58
2023/01/07 05:38:05;;;;;;;29.92;23.70;;;9.90;99.90;;;;;;5139972;27;20147;-58
2023/01/07 05:40:31;;;;;;;33.25;23.08;;;10.00;99.90;;;;;;5139199;27;20038;-57
2023/01/07 05:42:56;;;;;;;30.13;22.13;;;10.00;99.90;;;;;;5139789;27;20106;-58
2023/01/07 05:45:22;;;;;;;30.85;22.20;;;9.90;99.90;;;;;;5139326;27;20035;-58
2023/01/07 05:47:48;;;;;;;27.58;21.20;;;9.70;99.90;;;;;;5139797;27;20039;-57
2023/01/07 05:50:13;;;;;;;27.63;20.77;;;9.70;99.90;;;;;;5139767;27;20031;-57
2023/01/07 05:52:39;;;;;;;26.60;19.88;;;10.10;99.90;;;;;;5139285;27;20039;-58
2023/01/07 05:55:06;;;;;;;24.98;19.63;;;10.00;99.90;;;;;;5139600;27;20049;-58
2023/01/07 05:57:31;;;;;;;29.17;21.33;;;9.80;99.90;;;;;;5138811;27;20042;-58
2023/01/07 05:59:57;;;;;;;28.88;19.35;;;9.90;99.90;;;;;;5139471;27;20051;-57
2023/01/07 06:02:23;;;;;;;26.13;19.52;;;10.00;99.90;;;;;;5138785;27;20047;-58
2023/01/07 06:04:48;;;;;;;23.40;17.65;;;10.10;99.90;;;;;;5121215;27;20035;-57
2023/01/07 06:07:14;;;;;;;23.67;19.60;;;9.80;99.90;;;;;;5121060;27;20065;-56
2023/01/07 06:09:40;;;;;;;25.10;17.75;;;10.00;99.90;;;;;;5139493;27;20062;-58
2023/01/07 06:12:06;;;;;;;23.08;17.88;;;10.00;99.90;;;;;;5139828;27;20518;-57
2023/01/07 06:14:31;;;;;;;23.88;17.58;;;9.80;99.90;;;;;;5138881;27;20055;-58
2023/01/07 06:16:58;;;;;;;24.38;18.10;;;10.00;99.90;;;;;;5139620;27;20119;-58
2023/01/07 06:19:25;;;;;;;26.77;17.80;;;9.90;99.90;;;;;;5119382;27;20043;-58
2023/01/07 06:21:51;;;;;;;21.98;16.77;;;10.00;99.90;;;;;;5120644;27;20070;-58
2023/01/07 06:24:16;;;;;;;24.58;17.60;;;9.90;99.90;;;;;;5138825;27;20047;-57
2023/01/07 06:26:42;;;;;;;23.60;16.90;;;9.90;99.90;;;;;;5138677;27;20108;-57
2023/01/07 06:29:09;;;;;;;21.40;16.92;;;9.90;99.90;;;;;;5139090;27;20051;-58
2023/01/07 06:31:35;;;;;;;23.40;16.60;;;9.70;99.90;;;;;;5138215;27;20053;-58
2023/01/07 06:34:00;;;;;;;22.23;16.50;;;9.80;99.90;;;;;;5138881;27;20051;-57
2023/01/07 06:36:26;;;;;;;24.63;17.02;;;9.70;99.90;;;;;;5138409;27;20562;-58
2023/01/07 06:38:52;;;;;;;22.67;15.80;;;9.50;99.90;;;;;;5138936;27;20092;-57
2023/01/07 06:41:17;;;;;;;23.15;15.95;;;9.70;99.90;;;;;;5120207;27;20047;-58
2023/01/07 06:43:43;;;;;;;22.92;15.98;;;9.40;99.90;;;;;;5138402;27;20468;-58
2023/01/07 06:46:09;;;;;;;21.98;15.63;;;9.40;99.90;;;;;;5138909;27;20218;-57
2023/01/07 06:48:34;;;;;;;22.83;16.13;;;9.50;99.90;;;;;;5137868;27;20057;-58
2023/01/07 06:51:00;;;;;;;22.65;15.50;;;9.40;99.90;;;;;;5138814;27;20039;-57
2023/01/07 06:53:26;;;;;;;20.92;14.93;;;9.40;99.90;;;;;;5137732;27;20039;-58
2023/01/07 06:55:51;;;;;;;19.60;14.32;;;9.50;99.90;;;;;;5138851;27;20039;-58
2023/01/07 06:58:17;;;;;;;20.17;15.23;;;9.40;99.90;;;;;;5138258;28;20167;-58
2023/01/07 07:00:43;;;;;;;23.98;15.27;;;9.50;99.90;;;;;;5138575;28;20050;-57
2023/01/07 07:03:09;;;;;;;21.73;14.68;;;9.40;99.90;;;;;;5138469;28;20521;-57
2023/01/07 07:05:35;;;;;;;19.92;14.10;;;9.40;99.90;;;;;;5102758;28;20039;-57
2023/01/07 07:08:01;;;;;;;19.88;14.30;;;9.70;99.90;;;;;;5120026;28;20054;-58
2023/01/07 07:10:27;;;;;;;18.50;13.85;;;9.80;99.90;;;;;;5137849;28;20185;-59
2023/01/07 07:12:52;;;;;;;18.38;14.38;;;9.70;99.90;;;;;;5119752;28;20035;-57
2023/01/07 07:15:18;;;;;;;18.48;14.05;;;9.70;99.90;;;;;;5138043;28;20122;-58
2023/01/07 07:17:44;;;;;;;20.33;14.18;;;9.60;99.90;;;;;;5119679;28;20043;-58
2023/01/07 07:20:11;;;;;;;19.83;13.23;;;9.60;99.90;;;;;;5138402;28;20055;-59
2023/01/07 07:22:36;;;;;;;17.02;12.88;;;9.70;99.90;;;;;;5138000;28;20035;-58
2023/01/07 07:25:03;;;;;;;18.70;13.63;;;9.60;99.90;;;;;;5138645;28;20039;-59
2023/01/07 07:27:28;;;;;;;18.85;13.32;;;9.70;99.90;;;;;;5137548;28;20035;-57
2023/01/07 07:29:54;;;;;;;16.55;12.68;;;9.80;99.90;;;;;;5137798;28;20544;-59
2023/01/07 07:32:20;;;;;;;19.40;12.43;;;9.60;99.90;;;;;;5135337;27;20043;-58
2023/01/07 07:34:45;;;;;;;17.77;12.75;;;9.70;99.90;;;;;;5138544;27;20462;-58
2023/01/07 07:37:11;;;;;;;18.58;12.88;;;9.80;99.90;;;;;;5138248;27;20038;-56
2023/01/07 07:39:37;;;;;;;15.70;12.40;;;9.60;99.90;;;;;;5119635;27;20051;-58
2023/01/07 07:42:04;;;;;;;19.45;13.15;;;9.80;99.90;;;;;;5119971;27;20043;-57
2023/01/07 07:44:29;;;;;;;14.98;12.13;;;9.50;99.90;;;;;;5137158;27;20043;-57
2023/01/07 07:46:55;;;;;;;19.85;12.38;;;9.50;99.90;;;;;;5119810;27;20218;-57
2023/01/07 07:49:21;;;;;;;18.90;13.48;;;9.60;99.90;;;;;;5119175;27;20043;-57
2023/01/07 07:51:46;;;;;;;19.63;12.43;;;9.50;99.90;;;;;;5119780;27;20096;-57
2023/01/07 07:54:12;;;;;;;19.30;12.68;;;9.40;99.90;;;;;;5137745;27;20107;-58
2023/01/07 07:56:38;;;;;;;19.08;12.65;;;9.40;99.90;;;;;;5118846;27;20058;-58
2023/01/07 07:59:03;;;;;;;16.90;12.55;;;9.60;99.90;;;;;;5138051;27;20051;-57
2023/01/07 08:01:29;;;;;;;16.00;11.73;;;9.60;99.90;;;;;;5118627;27;20057;-57
2023/01/07 08:03:54;;;;;;;17.63;12.27;;;9.60;99.90;;;;;;5138215;27;20047;-57
2023/01/07 08:06:20;;;;;;;17.05;12.05;;;9.60;99.90;;;;;;5118899;27;20058;-58
2023/01/07 08:08:46;;;;;;;15.00;12.07;;;9.50;99.90;;;;;;5137611;27;20456;-57
2023/01/07 08:11:11;;;;;;;15.52;11.45;;;9.70;99.90;;;;;;5137509;27;20162;-57
2023/01/07 08:13:37;;;;;;;15.98;10.80;;;9.70;99.90;;;;;;5119373;27;20055;-58
2023/01/07 08:16:03;;;;;;;13.50;9.80;;;9.50;99.90;;;;;;5119304;27;20043;-57
2023/01/07 08:18:28;;;;;;;14.90;11.05;;;9.50;99.90;;;;;;5136647;27;20054;-57
2023/01/07 08:20:54;;;;;;;18.58;10.38;;;9.60;99.90;;;;;;5137658;27;20130;-59
2023/01/07 08:23:20;;;;;;;15.68;10.82;;;9.50;99.90;;;;;;5136851;27;20050;-58
2023/01/07 08:25:46;;;;;;;15.05;9.98;;;9.40;99.90;;;;;;5137250;27;20047;-57
2023/01/07 08:28:11;;;;;;;14.20;10.02;;;9.50;99.90;;;;;;5136666;27;20035;-58
2023/01/07 08:30:37;;;;;;;15.98;9.90;;;9.60;99.90;;;;;;5136682;27;20059;-58
2023/01/07 08:33:05;;;;;;;11.75;8.93;;;9.50;99.90;;;;;;5137435;27;20318;-57
2023/01/07 08:35:31;;;;;;;14.25;9.52;;;9.50;99.90;;;;;;5136774;27;20107;-57
2023/01/07 08:38:15;;;;;;;13.57;8.65;;;9.40;99.90;;;;;;5137288;27;20493;-57
2023/01/07 08:40:40;;;;;;;12.80;8.32;;;9.50;99.90;;;;;;5119714;27;20130;-59
2023/01/07 08:43:07;;;;;;;13.00;8.50;;;9.40;99.90;;;;;;5151425;27;20136;-58
2023/01/07 08:45:33;;;;;;;12.55;8.05;;;9.50;99.90;;;;;;5147558;27;20135;-57
2023/01/07 08:47:59;;;;;;;13.45;8.25;;;9.50;99.90;;;;;;5127596;27;20039;-58
2023/01/07 08:50:30;;;;;;;13.75;8.00;;;9.50;99.90;;;;;;5144227;27;20057;-58
2023/01/07 08:52:56;;;;;;;12.43;7.93;;;9.60;99.90;;;;;;5147711;27;20045;-57
2023/01/07 08:55:22;;;;;;;11.70;7.40;;;9.70;99.90;;;;;;5145282;27;20058;-57
2023/01/07 08:57:48;;;;;;;11.93;7.32;;;9.60;99.90;;;;;;5147166;27;20061;-58
2023/01/07 09:00:16;;;;;;;11.73;6.35;;;9.60;99.90;;;;;;5146777;27;20458;-59
2023/01/07 09:02:42;;;;;;;10.52;6.95;;;9.60;99.90;;;;;;5146866;27;20050;-57
2023/01/07 09:05:09;;;;;;;11.50;5.88;;;9.70;99.90;;;;;;5146534;27;20095;-58
2023/01/07 09:07:34;;;;;;;11.85;6.63;;;9.60;99.90;;;;;;5146722;27;20047;-57
2023/01/07 09:10:00;;;;;;;11.88;6.00;;;9.70;99.90;;;;;;5141016;27;20043;-57
2023/01/07 09:12:26;;;;;;;10.63;6.72;;;9.70;99.90;;;;;;5136277;27;20050;-57
2023/01/07 09:14:52;;;;;;;10.43;6.18;;;9.60;99.90;;;;;;5135967;27;20099;-57
2023/01/07 09:17:18;;;;;;;8.40;5.85;;;9.60;99.90;;;;;;5136684;27;20043;-58
2023/01/07 09:19:43;;;;;;;11.52;6.03;;;9.70;99.90;;;;;;5135828;27;20054;-57
2023/01/07 09:22:09;;;;;;;8.80;5.22;;;9.50;99.90;;;;;;5136048;27;20498;-58
2023/01/07 09:24:35;;;;;;;11.73;5.88;;;9.50;99.90;;;;;;5118011;27;20104;-57
2023/01/07 09:27:00;;;;;;;11.00;6.07;;;9.50;99.90;;;;;;5135703;27;20050;-57
2023/01/07 09:29:26;;;;;;;10.50;5.38;;;9.70;99.90;;;;;;5117982;27;20043;-57
2023/01/07 09:31:52;;;;;;;10.05;6.00;;;9.60;99.90;;;;;;5135174;27;20058;-58
2023/01/07 09:34:18;;;;;;;8.27;5.18;;;9.50;99.90;;;;;;5136101;27;20050;-57
2023/01/07 09:36:43;;;;;;;9.90;5.25;;;9.50;99.90;;;;;;5135411;27;20043;-57
2023/01/07 09:39:10;;;;;;;9.52;5.22;;;9.60;99.90;;;;;;5135772;27;20031;-57
2023/01/07 09:41:53;;;;;;;9.40;5.22;;;9.60;99.90;;;;;;5135902;27;20133;-57
2023/01/07 09:44:32;;;;;;;10.43;5.20;;;9.50;99.90;;;;;;5134753;27;20047;-58
2023/01/07 09:46:59;;;;;;;10.77;5.10;;;9.60;99.90;;;;;;5135886;27;20100;-57
2023/01/07 09:49:28;;;;;;;8.40;4.68;;;9.60;99.90;;;;;;5116791;27;20039;-58
2023/01/07 09:52:14;;;;;;;9.48;5.25;;;9.60;99.90;;;;;;5135494;27;20403;-57
2023/01/07 09:54:42;;;;;;;9.32;4.65;;;9.40;99.90;;;;;;5141844;27;20054;-57
2023/01/07 09:57:15;;;;;;;7.45;4.28;;;9.50;99.90;;;;;;5155669;27;20047;-58
2023/01/07 09:59:40;;;;;;;9.25;4.60;;;9.50;99.90;;;;;;5156329;27;20043;-57
2023/01/07 10:02:59;;;;;;;7.63;4.25;;;9.60;99.90;;;;;;5155209;27;20130;-57
2023/01/07 10:05:25;;;;;;;10.20;4.00;;;9.60;99.90;;;;;;5050763;28;20056;-58
2023/01/07 10:08:21;;;;;;;9.27;4.15;;;9.60;99.90;;;;;;5117104;27;20047;-58
2023/01/07 10:10:56;;;;;;;8.05;3.92;;;9.60;99.90;;;;;;5132711;27;20371;-55
2023/01/07 10:13:36;;;;;;;7.28;3.70;;;9.70;99.90;;;;;;5135183;27;20092;-58
2023/01/07 10:16:27;;;;;;;7.85;3.97;;;9.70;99.90;;;;;;5134837;27;20044;-57
2023/01/07 10:19:37;;;;;;;7.93;4.00;;;9.60;99.90;;;;;;5115435;27;20047;-56
2023/01/07 10:22:44;;;;;;;7.90;4.05;;;9.70;99.90;;;;;;5134872;27;20996;-57
2023/01/07 10:25:21;;;;;;;9.45;3.67;;;9.70;99.90;;;;;;5134169;27;20051;-57
2023/01/07 10:27:48;;;;;;;7.00;3.72;;;9.70;99.90;;;;;;5134364;27;20062;-58
2023/01/07 10:30:39;;;;;;;6.93;4.25;;;9.90;99.90;;;;;;5135086;27;20055;-57
2023/01/07 10:33:19;;;;;;;8.45;4.30;;;9.70;99.90;;;;;;5135406;27;20054;-57
2023/01/07 10:35:47;;;;;;;8.73;3.65;;;9.90;99.90;;;;;;5098716;27;20509;-57
2023/01/07 10:38:24;;;;;;;10.38;4.22;;;9.80;99.90;;;;;;5116164;27;20046;-57
2023/01/07 10:40:55;;;;;;;7.20;3.65;;;9.80;99.90;;;;;;5134171;27;20530;-58
2023/01/07 10:43:49;;;;;;;7.07;3.60;;;9.90;99.90;;;;;;5098669;27;20043;-57
2023/01/07 10:46:41;;;;;;;7.18;3.40;;;9.90;99.90;;;;;;5134922;27;20051;-57
2023/01/07 10:49:31;;;;;;;7.10;3.50;;;9.90;99.90;;;;;;5115760;28;20502;-57
2023/01/07 10:52:03;;;;;;;7.97;3.13;;;9.80;99.90;;;;;;5121075;27;20047;-58
2023/01/07 10:54:45;;;;;;;6.78;3.63;;;9.90;99.90;;;;;;5123458;27;20051;-55
2023/01/07 10:57:30;;;;;;;8.40;3.92;;;10.00;99.90;;;;;;5143398;27;20039;-58
2023/01/07 11:00:01;;;;;;;10.30;4.18;;;9.90;99.90;;;;;;5144959;27;20122;-57
2023/01/07 11:02:27;;;;;;;7.53;3.50;;;10.00;99.90;;;;;;5144904;27;20558;-57
2023/01/07 11:04:55;;;;;;;6.63;3.40;;;10.00;99.90;;;;;;5143934;27;20069;-57
2023/01/07 11:07:27;;;;;;;7.85;3.20;;;10.10;99.90;;;;;;5129552;27;20454;-57
2023/01/07 11:09:54;;;;;;;7.45;3.50;;;10.20;99.90;;;;;;5147732;27;20517;-57
2023/01/07 11:12:43;;;;;;;6.10;3.10;;;10.20;99.90;;;;;;5148282;27;20058;-58
2023/01/07 11:15:24;;;;;;;6.22;3.10;;;10.40;99.90;;;;;;5142797;27;20624;-58
2023/01/07 11:18:17;;;;;;;6.95;2.90;;;10.40;99.90;;;;;;5159325;27;20056;-58
2023/01/07 11:20:51;;;;;;;6.05;3.13;;;10.30;99.90;;;;;;5140304;27;20057;-57
2023/01/07 11:23:36;;;;;;;5.75;3.00;;;10.30;99.90;;;;;;5151049;27;20035;-57
2023/01/07 11:26:17;;;;;;;6.75;3.10;;;10.40;99.90;;;;;;5147884;27;20104;-58
2023/01/07 11:28:56;;;;;;;5.55;2.97;;;10.50;99.90;;;;;;5147452;27;20147;-57
2023/01/07 11:31:43;;;;;;;5.97;3.17;;;10.60;99.90;;;;;;5154822;27;20054;-58
2023/01/07 11:34:22;;;;;;;6.00;2.70;;;10.70;99.90;;;;;;5138658;27;20045;-58
2023/01/07 11:36:49;;;;;;;5.75;2.75;;;10.80;99.90;;;;;;5146298;27;20611;-57
2023/01/07 11:39:26;;;;;;;6.95;3.08;;;10.80;99.90;;;;;;5134483;27;20134;-58
2023/01/07 11:45:16;;;;;;;6.90;2.63;;;10.90;99.90;;;;;;5137284;27;20081;-56
2023/01/07 11:47:47;;;;;;;5.40;2.30;;;11.00;99.90;;;;;;5122441;27;20047;-57
2023/01/07 11:50:37;;;;;;;5.50;2.30;;;11.00;99.90;;;;;;5141481;27;20099;-57
2023/01/07 11:53:12;;;;;;;7.07;2.40;;;10.90;99.90;;;;;;5140921;27;20039;-58
2023/01/07 11:55:38;;;;;;;4.93;2.08;;;10.90;99.90;;;;;;5157533;27;20139;-57
2023/01/07 11:58:05;;;;;;;7.00;2.13;;;10.80;99.90;;;;;;5162080;27;20047;-56
2023/01/07 12:00:32;;;;;;;5.35;2.20;;;10.70;99.90;;;;;;5162551;27;20079;-57
2023/01/07 12:03:10;;;;;;;6.63;2.45;;;10.70;99.90;;;;;;5162601;27;20136;-57
2023/01/07 12:05:38;;;;;;;6.18;2.50;;;10.70;99.90;;;;;;5161954;27;20039;-57
2023/01/07 12:08:04;;;;;;;6.43;2.65;;;10.70;99.90;;;;;;5162642;27;20038;-57
2023/01/07 12:10:35;;;;;;;5.47;2.20;;;10.70;99.90;;;;;;5161128;27;20391;-57
2023/01/07 12:13:15;;;;;;;6.03;2.38;;;10.60;99.90;;;;;;5161349;27;20070;-57
2023/01/07 12:16:00;;;;;;;4.70;1.90;;;10.70;99.90;;;;;;5161457;27;20043;-58
2023/01/07 12:18:46;;;;;;;4.90;2.15;;;10.60;99.90;;;;;;5160324;27;20099;-57
2023/01/07 12:21:15;;;;;;;5.75;2.20;;;10.60;99.90;;;;;;5161383;27;20051;-58
2023/01/07 12:23:43;;;;;;;4.72;2.05;;;10.70;99.90;;;;;;5160907;27;20070;-58
2023/01/07 12:26:23;;;;;;;5.13;1.92;;;10.70;99.90;;;;;;5161245;27;20062;-58
2023/01/07 12:28:48;;;;;;;6.32;2.05;;;10.70;99.90;;;;;;5161748;27;20047;-56
2023/01/07 12:31:42;;;;;;;5.85;2.13;;;10.70;99.90;;;;;;5161074;27;20520;-58
2023/01/07 12:34:26;;;;;;;4.90;1.80;;;10.70;99.90;;;;;;5161006;27;20042;-58
2023/01/07 12:36:59;;;;;;;8.27;2.10;;;10.70;99.90;;;;;;5160735;27;20049;-60
2023/01/07 12:39:34;;;;;;;5.18;2.40;;;10.70;99.90;;;;;;5160273;27;20087;-58
2023/01/07 12:42:31;;;;;;;5.13;2.17;;;10.70;99.90;;;;;;5160317;27;20038;-58
2023/01/07 12:45:02;;;;;;;5.88;2.10;;;10.70;99.90;;;;;;5159800;27;20069;-58
2023/01/07 12:47:50;;;;;;;5.00;1.90;;;10.70;99.90;;;;;;5160834;27;20063;-58
2023/01/07 12:50:32;;;;;;;5.28;2.00;;;10.80;99.90;;;;;;5125041;27;20050;-60
2023/01/07 12:53:18;;;;;;;;;;;10.80;99.90;;;;;;5161182;27;20045;-59
2023/01/07 12:55:50;;;;;;;4.63;2.00;;;10.80;99.90;;;;;;5143985;27;20328;-57
2023/01/07 12:58:27;;;;;;;5.57;2.00;;;10.80;99.90;;;;;;5140048;27;20031;-57
2023/01/07 13:00:58;;;;;;;5.28;2.05;;;10.80;99.90;;;;;;5139937;27;20071;-58